createdAt,value
2022-09-28T00:00:36.432Z,974.21
2022-09-28T00:01:36.474Z,974.22
2022-09-28T00:02:36.523Z,974.16
2022-09-28T00:03:37.432Z,974.21
2022-09-28T00:04:36.400Z,974.16
2022-09-28T00:05:36.388Z,974.17
2022-09-28T00:06:36.381Z,974.06
2022-09-28T00:07:36.373Z,974.07
2022-09-28T00:08:36.394Z,974.06
2022-09-28T00:09:36.357Z,974.05
2022-09-28T00:10:36.345Z,973.93
2022-09-28T00:11:36.344Z,973.95
2022-09-28T00:12:36.338Z,973.92
2022-09-28T00:13:36.351Z,973.94
2022-09-28T00:14:36.318Z,973.87
2022-09-28T00:15:36.310Z,973.83
2022-09-28T00:16:36.353Z,973.87
2022-09-28T00:17:36.296Z,973.79
2022-09-28T00:18:36.320Z,973.82
2022-09-28T00:19:36.277Z,973.85
2022-09-28T00:20:36.271Z,973.77
2022-09-28T00:21:36.259Z,973.75
2022-09-28T00:22:36.252Z,973.77
2022-09-28T00:23:36.271Z,973.76
2022-09-28T00:24:36.238Z,973.78
2022-09-28T00:25:36.234Z,973.67
2022-09-28T00:26:36.228Z,973.71
2022-09-28T00:27:36.218Z,973.69
2022-09-28T00:28:36.230Z,973.61
2022-09-28T00:29:36.197Z,973.67
2022-09-28T00:30:36.189Z,973.61
2022-09-28T00:31:36.240Z,973.56
2022-09-28T00:32:36.175Z,973.60
2022-09-28T00:33:36.196Z,973.55
2022-09-28T00:34:36.163Z,973.52
2022-09-28T00:35:36.149Z,973.48
2022-09-28T00:36:36.142Z,973.50
2022-09-28T00:37:36.137Z,973.48
2022-09-28T00:38:36.135Z,973.49
2022-09-28T00:39:36.144Z,973.46
2022-09-28T00:40:36.162Z,973.51
2022-09-28T00:41:36.104Z,973.46
2022-09-28T00:42:36.096Z,973.39
2022-09-28T00:43:36.086Z,973.46
2022-09-28T00:44:36.105Z,973.47
2022-09-28T00:45:36.141Z,973.42
2022-09-28T00:46:36.068Z,973.44
2022-09-28T00:47:36.055Z,973.39
2022-09-28T00:48:36.051Z,973.35
2022-09-28T00:49:36.066Z,973.28
2022-09-28T00:50:36.035Z,973.29
2022-09-28T00:51:36.026Z,973.24
2022-09-28T00:52:36.021Z,973.23
2022-09-28T00:53:36.011Z,973.24
2022-09-28T00:54:36.029Z,973.14
2022-09-28T00:55:36.005Z,973.19
2022-09-28T00:56:35.992Z,973.20
2022-09-28T00:57:35.986Z,973.21
2022-09-28T00:58:35.974Z,973.29
2022-09-28T00:59:35.989Z,973.25
2022-09-28T01:00:35.975Z,973.31
2022-09-28T01:01:35.952Z,973.28
2022-09-28T01:02:35.944Z,973.24
2022-09-28T01:03:35.936Z,973.25
2022-09-28T01:04:35.957Z,973.21
2022-09-28T01:05:35.922Z,973.18
2022-09-28T01:06:35.934Z,973.18
2022-09-28T01:07:35.910Z,973.14
2022-09-28T01:08:35.902Z,973.09
2022-09-28T01:09:35.916Z,973.16
2022-09-28T01:10:35.888Z,973.14
2022-09-28T01:11:35.950Z,973.16
2022-09-28T01:12:35.873Z,973.11
2022-09-28T01:13:35.864Z,973.09
2022-09-28T01:14:35.879Z,973.01
2022-09-28T01:15:35.846Z,972.97
2022-09-28T01:16:35.857Z,972.92
2022-09-28T01:17:35.832Z,972.97
2022-09-28T01:18:35.824Z,972.88
2022-09-28T01:19:35.846Z,972.89
2022-09-28T01:20:35.809Z,972.85
2022-09-28T01:21:35.799Z,972.84
2022-09-28T01:22:35.790Z,972.83
2022-09-28T01:23:35.827Z,972.83
2022-09-28T01:24:35.805Z,972.81
2022-09-28T01:25:35.769Z,972.84
2022-09-28T01:26:35.764Z,972.78
2022-09-28T01:27:35.753Z,972.88
2022-09-28T01:28:35.747Z,972.84
2022-09-28T01:29:35.735Z,972.84
2022-09-28T01:30:35.755Z,972.85
2022-09-28T01:31:35.796Z,972.81
2022-09-28T01:32:35.721Z,972.79
2022-09-28T01:33:35.709Z,972.78
2022-09-28T01:34:35.701Z,972.79
2022-09-28T01:35:35.718Z,972.77
2022-09-28T01:36:35.683Z,972.75
2022-09-28T01:37:35.680Z,972.71
2022-09-28T01:38:35.671Z,972.75
2022-09-28T01:39:35.759Z,972.70
2022-09-28T01:40:35.746Z,972.71
2022-09-28T01:41:35.648Z,972.75
2022-09-28T01:42:35.641Z,972.69
2022-09-28T01:43:35.630Z,972.64
2022-09-28T01:44:35.663Z,972.59
2022-09-28T01:45:35.729Z,972.63
2022-09-28T01:46:35.607Z,972.62
2022-09-28T01:47:35.599Z,972.61
2022-09-28T01:48:35.594Z,972.62
2022-09-28T01:49:35.617Z,972.55
2022-09-28T01:50:36.605Z,972.56
2022-09-28T01:51:35.572Z,972.52
2022-09-28T01:52:35.565Z,972.53
2022-09-28T01:53:35.560Z,972.55
2022-09-28T01:54:35.551Z,972.51
2022-09-28T01:55:35.572Z,972.52
2022-09-28T01:56:35.538Z,972.48
2022-09-28T01:57:35.531Z,972.50
2022-09-28T01:58:35.525Z,972.49
2022-09-28T01:59:35.510Z,972.52
2022-09-28T02:00:35.564Z,972.46
2022-09-28T02:01:36.496Z,972.43
2022-09-28T02:02:35.552Z,972.44
2022-09-28T02:03:35.486Z,972.42
2022-09-28T02:04:35.490Z,972.43
2022-09-28T02:05:35.490Z,972.44
2022-09-28T02:06:35.459Z,972.40
2022-09-28T02:07:35.447Z,972.39
2022-09-28T02:08:35.440Z,972.41
2022-09-28T02:09:35.434Z,972.36
2022-09-28T02:10:35.449Z,972.28
2022-09-28T02:11:35.418Z,972.33
2022-09-28T02:12:35.398Z,972.28
2022-09-28T02:13:36.397Z,972.31
2022-09-28T02:14:35.392Z,972.33
2022-09-28T02:15:35.407Z,972.25
2022-09-28T02:16:35.402Z,972.27
2022-09-28T02:17:35.368Z,972.23
2022-09-28T02:18:35.362Z,972.18
2022-09-28T02:19:35.357Z,972.15
2022-09-28T02:20:35.369Z,972.18
2022-09-28T02:21:35.339Z,972.19
2022-09-28T02:22:35.328Z,972.22
2022-09-28T02:23:35.320Z,972.20
2022-09-28T02:24:35.313Z,972.14
2022-09-28T02:25:35.333Z,972.17
2022-09-28T02:26:35.297Z,972.10
2022-09-28T02:27:35.291Z,972.14
2022-09-28T02:28:35.287Z,972.08
2022-09-28T02:29:35.274Z,972.14
2022-09-28T02:30:35.291Z,972.10
2022-09-28T02:31:35.337Z,972.11
2022-09-28T02:32:35.253Z,972.07
2022-09-28T02:33:35.241Z,972.08
2022-09-28T02:34:35.237Z,972.07
2022-09-28T02:35:35.255Z,972.09
2022-09-28T02:36:35.221Z,972.09
2022-09-28T02:37:35.210Z,972.05
2022-09-28T02:38:35.203Z,972.06
2022-09-28T02:39:35.200Z,972.00
2022-09-28T02:40:35.251Z,971.92
2022-09-28T02:41:35.182Z,971.98
2022-09-28T02:42:35.174Z,971.99
2022-09-28T02:43:35.164Z,972.03
2022-09-28T02:44:35.155Z,971.95
2022-09-28T02:45:35.189Z,971.93
2022-09-28T02:46:35.144Z,971.97
2022-09-28T02:47:35.134Z,971.96
2022-09-28T02:48:43.603Z,971.97
2022-09-28T02:49:37.120Z,971.93
2022-09-28T02:50:35.135Z,971.88
2022-09-28T02:51:35.104Z,971.80
2022-09-28T02:52:35.094Z,971.85
2022-09-28T02:53:35.079Z,971.85
2022-09-28T02:54:36.077Z,971.80
2022-09-28T02:55:35.093Z,971.77
2022-09-28T02:56:35.065Z,971.75
2022-09-28T02:57:35.054Z,971.68
2022-09-28T02:58:35.048Z,971.73
2022-09-28T02:59:35.043Z,971.65
2022-09-28T03:00:35.121Z,971.68
2022-09-28T03:01:35.024Z,971.64
2022-09-28T03:02:35.017Z,971.67
2022-09-28T03:03:35.009Z,971.67
2022-09-28T03:04:35.004Z,971.58
2022-09-28T03:05:35.025Z,971.70
2022-09-28T03:06:34.984Z,971.62
2022-09-28T03:07:34.987Z,971.60
2022-09-28T03:08:34.972Z,971.58
2022-09-28T03:09:34.965Z,971.65
2022-09-28T03:10:34.979Z,971.63
2022-09-28T03:11:34.949Z,971.61
2022-09-28T03:12:34.942Z,971.58
2022-09-28T03:13:34.929Z,971.62
2022-09-28T03:14:34.925Z,971.63
2022-09-28T03:15:34.938Z,971.66
2022-09-28T03:16:34.964Z,971.59
2022-09-28T03:17:34.899Z,971.56
2022-09-28T03:18:34.890Z,971.62
2022-09-28T03:19:34.891Z,971.62
2022-09-28T03:20:34.901Z,971.57
2022-09-28T03:21:34.870Z,971.55
2022-09-28T03:22:34.864Z,971.50
2022-09-28T03:23:34.854Z,971.51
2022-09-28T03:24:34.840Z,971.54
2022-09-28T03:25:34.865Z,971.47
2022-09-28T03:26:34.831Z,971.41
2022-09-28T03:27:34.813Z,971.43
2022-09-28T03:28:35.819Z,971.47
2022-09-28T03:29:34.810Z,971.41
2022-09-28T03:30:34.829Z,971.47
2022-09-28T03:31:34.810Z,971.43
2022-09-28T03:32:34.785Z,971.41
2022-09-28T03:33:34.779Z,971.41
2022-09-28T03:34:34.770Z,971.35
2022-09-28T03:35:34.786Z,971.39
2022-09-28T03:36:34.754Z,971.36
2022-09-28T03:37:34.747Z,971.38
2022-09-28T03:38:34.738Z,971.37
2022-09-28T03:39:34.733Z,971.38
2022-09-28T03:40:34.826Z,971.38
2022-09-28T03:41:34.720Z,971.37
2022-09-28T03:42:34.713Z,971.28
2022-09-28T03:43:34.701Z,971.40
2022-09-28T03:44:34.690Z,971.33
2022-09-28T03:45:34.751Z,971.36
2022-09-28T03:46:34.708Z,971.34
2022-09-28T03:47:34.673Z,971.32
2022-09-28T03:48:34.661Z,971.26
2022-09-28T03:49:34.655Z,971.29
2022-09-28T03:50:34.654Z,971.28
2022-09-28T03:51:34.662Z,971.26
2022-09-28T03:52:34.633Z,971.26
2022-09-28T03:53:34.622Z,971.12
2022-09-28T03:54:34.622Z,971.14
2022-09-28T03:55:34.608Z,971.23
2022-09-28T03:56:34.627Z,971.14
2022-09-28T03:57:34.593Z,971.17
2022-09-28T03:58:34.582Z,971.18
2022-09-28T03:59:34.578Z,971.14
2022-09-28T04:00:34.589Z,971.08
2022-09-28T04:01:34.640Z,971.05
2022-09-28T04:02:34.653Z,971.13
2022-09-28T04:03:34.547Z,971.11
2022-09-28T04:04:34.542Z,971.04
2022-09-28T04:05:34.535Z,970.98
2022-09-28T04:06:34.549Z,970.98
2022-09-28T04:07:34.518Z,970.96
2022-09-28T04:08:34.509Z,970.98
2022-09-28T04:09:34.491Z,970.99
2022-09-28T04:10:35.494Z,970.94
2022-09-28T04:11:43.014Z,970.98
2022-09-28T04:12:36.479Z,970.99
2022-09-28T04:13:34.479Z,971.00
2022-09-28T04:14:34.464Z,970.92
2022-09-28T04:15:34.458Z,971.00
2022-09-28T04:16:34.507Z,970.95
2022-09-28T04:17:39.196Z,970.97
2022-09-28T04:18:36.428Z,971.00
2022-09-28T04:19:34.424Z,971.02
2022-09-28T04:20:34.414Z,970.97
2022-09-28T04:21:34.435Z,970.97
2022-09-28T04:22:34.403Z,970.94
2022-09-28T04:23:34.392Z,970.98
2022-09-28T04:24:34.388Z,970.91
2022-09-28T04:25:34.374Z,970.94
2022-09-28T04:26:34.404Z,970.97
2022-09-28T04:27:34.359Z,970.99
2022-09-28T04:28:34.353Z,970.99
2022-09-28T04:29:34.335Z,970.97
2022-09-28T04:30:35.337Z,970.93
2022-09-28T04:31:34.442Z,970.92
2022-09-28T04:32:34.321Z,970.94
2022-09-28T04:33:34.310Z,970.94
2022-09-28T04:34:36.506Z,970.95
2022-09-28T04:35:35.296Z,970.95
2022-09-28T04:36:34.316Z,970.93
2022-09-28T04:37:34.284Z,970.96
2022-09-28T04:38:51.961Z,970.92
2022-09-28T04:39:36.267Z,970.92
2022-09-28T04:40:34.305Z,970.95
2022-09-28T04:41:34.274Z,970.94
2022-09-28T04:42:34.240Z,970.94
2022-09-28T04:43:34.237Z,970.95
2022-09-28T04:44:34.225Z,970.90
2022-09-28T04:45:34.299Z,970.95
2022-09-28T04:46:34.241Z,970.89
2022-09-28T04:47:34.197Z,970.84
2022-09-28T04:48:35.202Z,970.88
2022-09-28T04:49:34.195Z,970.87
2022-09-28T04:50:34.179Z,970.90
2022-09-28T04:51:34.201Z,970.87
2022-09-28T04:52:34.168Z,970.87
2022-09-28T04:53:34.164Z,970.89
2022-09-28T04:54:34.154Z,970.94
2022-09-28T04:55:34.186Z,970.88
2022-09-28T04:56:34.160Z,970.98
2022-09-28T04:57:34.126Z,970.96
2022-09-28T04:58:34.116Z,970.95
2022-09-28T04:59:34.112Z,970.93
2022-09-28T05:00:34.106Z,970.97
2022-09-28T05:01:34.216Z,970.93
2022-09-28T05:02:34.134Z,970.92
2022-09-28T05:03:34.087Z,970.98
2022-09-28T05:04:34.077Z,970.96
2022-09-28T05:05:34.068Z,970.96
2022-09-28T05:06:34.091Z,970.93
2022-09-28T05:07:34.061Z,970.98
2022-09-28T05:08:34.044Z,970.98
2022-09-28T05:09:38.298Z,971.01
2022-09-28T05:10:35.026Z,970.98
2022-09-28T05:11:34.045Z,971.00
2022-09-28T05:12:34.013Z,970.92
2022-09-28T05:13:34.010Z,970.96
2022-09-28T05:14:33.997Z,970.98
2022-09-28T05:15:33.990Z,970.95
2022-09-28T05:16:34.133Z,970.98
2022-09-28T05:17:33.975Z,971.04
2022-09-28T05:18:33.969Z,971.05
2022-09-28T05:19:33.962Z,970.96
2022-09-28T05:20:33.956Z,971.00
2022-09-28T05:21:33.973Z,971.02
2022-09-28T05:22:33.942Z,971.03
2022-09-28T05:23:34.675Z,971.09
2022-09-28T05:24:34.920Z,971.03
2022-09-28T05:25:33.910Z,971.06
2022-09-28T05:26:33.918Z,971.05
2022-09-28T05:27:34.897Z,971.03
2022-09-28T05:28:33.891Z,971.01
2022-09-28T05:29:33.882Z,971.11
2022-09-28T05:30:33.873Z,970.98
2022-09-28T05:31:33.917Z,971.06
2022-09-28T05:32:33.860Z,971.02
2022-09-28T05:33:33.857Z,971.06
2022-09-28T05:34:33.847Z,971.10
2022-09-28T05:35:33.836Z,971.09
2022-09-28T05:36:33.857Z,971.11
2022-09-28T05:37:33.821Z,971.06
2022-09-28T05:38:33.811Z,971.07
2022-09-28T05:39:33.805Z,971.12
2022-09-28T05:40:33.844Z,971.18
2022-09-28T05:41:33.816Z,971.09
2022-09-28T05:42:33.785Z,971.12
2022-09-28T05:43:33.792Z,971.14
2022-09-28T05:44:33.772Z,971.08
2022-09-28T05:45:33.857Z,971.05
2022-09-28T05:46:34.786Z,971.12
2022-09-28T05:47:33.744Z,971.16
2022-09-28T05:48:33.734Z,971.10
2022-09-28T05:49:33.725Z,971.17
2022-09-28T05:50:33.717Z,971.12
2022-09-28T05:51:33.737Z,971.16
2022-09-28T05:52:33.705Z,971.17
2022-09-28T05:53:33.692Z,971.19
2022-09-28T05:54:33.686Z,971.15
2022-09-28T05:55:33.755Z,971.15
2022-09-28T05:56:33.696Z,971.19
2022-09-28T05:57:33.661Z,971.16
2022-09-28T05:58:33.651Z,971.22
2022-09-28T05:59:33.644Z,971.25
2022-09-28T06:00:33.633Z,971.23
2022-09-28T06:01:33.703Z,971.24
2022-09-28T06:02:33.661Z,971.24
2022-09-28T06:03:33.617Z,971.18
2022-09-28T06:04:33.605Z,971.24
2022-09-28T06:05:33.615Z,971.24
2022-09-28T06:06:33.620Z,971.17
2022-09-28T06:07:33.585Z,971.26
2022-09-28T06:08:33.577Z,971.30
2022-09-28T06:09:33.569Z,971.30
2022-09-28T06:10:33.559Z,971.29
2022-09-28T06:11:33.584Z,971.31
2022-09-28T06:12:33.544Z,971.37
2022-09-28T06:13:33.539Z,971.35
2022-09-28T06:14:33.528Z,971.36
2022-09-28T06:15:33.523Z,971.40
2022-09-28T06:16:33.591Z,971.38
2022-09-28T06:17:33.506Z,971.33
2022-09-28T06:18:33.495Z,971.33
2022-09-28T06:19:33.493Z,971.37
2022-09-28T06:20:33.482Z,971.34
2022-09-28T06:21:33.499Z,971.33
2022-09-28T06:22:33.465Z,971.40
2022-09-28T06:23:33.458Z,971.42
2022-09-28T06:24:33.445Z,971.45
2022-09-28T06:25:33.439Z,971.46
2022-09-28T06:26:33.460Z,971.45
2022-09-28T06:27:33.425Z,971.43
2022-09-28T06:28:33.417Z,971.50
2022-09-28T06:29:33.415Z,971.50
2022-09-28T06:30:33.486Z,971.50
2022-09-28T06:31:33.426Z,971.50
2022-09-28T06:32:33.383Z,971.52
2022-09-28T06:33:33.377Z,971.51
2022-09-28T06:34:33.381Z,971.56
2022-09-28T06:35:33.361Z,971.56
2022-09-28T06:36:33.382Z,971.53
2022-09-28T06:37:33.348Z,971.54
2022-09-28T06:38:33.343Z,971.62
2022-09-28T06:39:33.332Z,971.63
2022-09-28T06:40:33.368Z,971.62
2022-09-28T06:41:33.348Z,971.57
2022-09-28T06:42:33.318Z,971.56
2022-09-28T06:43:34.493Z,971.63
2022-09-28T06:44:34.293Z,971.64
2022-09-28T06:45:33.288Z,971.62
2022-09-28T06:46:33.376Z,971.64
2022-09-28T06:47:33.274Z,971.61
2022-09-28T06:48:33.264Z,971.70
2022-09-28T06:49:33.256Z,971.66
2022-09-28T06:50:33.250Z,971.68
2022-09-28T06:51:33.268Z,971.68
2022-09-28T06:52:33.232Z,971.67
2022-09-28T06:53:33.229Z,971.68
2022-09-28T06:54:33.215Z,971.72
2022-09-28T06:55:33.211Z,971.71
2022-09-28T06:56:33.289Z,971.67
2022-09-28T06:57:33.199Z,971.71
2022-09-28T06:58:33.185Z,971.75
2022-09-28T06:59:33.183Z,971.74
2022-09-28T07:00:33.175Z,971.74
2022-09-28T07:01:33.222Z,971.70
2022-09-28T07:02:33.197Z,971.71
2022-09-28T07:03:33.149Z,971.74
2022-09-28T07:04:33.147Z,971.76
2022-09-28T07:05:33.138Z,971.79
2022-09-28T07:06:33.154Z,971.79
2022-09-28T07:07:33.123Z,971.86
2022-09-28T07:08:33.118Z,971.86
2022-09-28T07:09:35.059Z,971.92
2022-09-28T07:10:34.104Z,971.89
2022-09-28T07:11:33.113Z,971.93
2022-09-28T07:12:33.086Z,971.88
2022-09-28T07:13:49.870Z,971.97
2022-09-28T07:14:47.461Z,971.99
2022-09-28T07:15:35.060Z,971.96
2022-09-28T07:16:57.633Z,972.05
2022-09-28T07:17:42.224Z,972.02
2022-09-28T07:18:34.037Z,972.05
2022-09-28T07:19:33.023Z,972.07
2022-09-28T07:20:36.082Z,972.04
2022-09-28T07:21:34.029Z,972.16
2022-09-28T07:22:42.209Z,972.10
2022-09-28T07:23:46.491Z,972.17
2022-09-28T07:24:34.990Z,972.17
2022-09-28T07:25:32.987Z,972.17
2022-09-28T07:26:32.991Z,972.20
2022-09-28T07:27:32.969Z,972.17
2022-09-28T07:28:32.957Z,972.23
2022-09-28T07:29:32.946Z,972.24
2022-09-28T07:30:32.987Z,972.20
2022-09-28T07:31:32.956Z,972.25
2022-09-28T07:32:32.929Z,972.24
2022-09-28T07:33:32.931Z,972.27
2022-09-28T07:34:32.896Z,972.27
2022-09-28T07:35:33.896Z,972.23
2022-09-28T07:36:32.918Z,972.30
2022-09-28T07:37:32.881Z,972.28
2022-09-28T07:38:32.875Z,972.33
2022-09-28T07:39:32.869Z,972.34
2022-09-28T07:40:32.882Z,972.33
2022-09-28T07:41:32.881Z,972.39
2022-09-28T07:42:32.852Z,972.30
2022-09-28T07:43:32.844Z,972.38
2022-09-28T07:44:32.835Z,972.39
2022-09-28T07:45:32.883Z,972.32
2022-09-28T07:46:32.840Z,972.30
2022-09-28T07:47:35.231Z,972.41
2022-09-28T07:48:33.802Z,972.41
2022-09-28T07:49:32.792Z,972.44
2022-09-28T07:50:32.785Z,972.45
2022-09-28T07:51:32.808Z,972.49
2022-09-28T07:52:32.768Z,972.54
2022-09-28T07:53:32.757Z,972.51
2022-09-28T07:54:32.754Z,972.53
2022-09-28T07:55:33.389Z,972.59
2022-09-28T07:56:32.764Z,972.58
2022-09-28T07:57:32.742Z,972.66
2022-09-28T07:58:32.726Z,972.64
2022-09-28T07:59:32.713Z,972.61
2022-09-28T08:00:34.215Z,972.66
2022-09-28T08:01:33.782Z,972.73
2022-09-28T08:02:32.741Z,972.72
2022-09-28T08:03:32.686Z,972.57
2022-09-28T08:04:32.678Z,972.63
2022-09-28T08:05:32.673Z,972.64
2022-09-28T08:06:32.664Z,972.69
2022-09-28T08:07:32.683Z,972.65
2022-09-28T08:08:32.653Z,972.64
2022-09-28T08:09:32.642Z,972.66
2022-09-28T08:10:32.635Z,972.74
2022-09-28T08:11:32.625Z,972.70
2022-09-28T08:12:32.640Z,972.69
2022-09-28T08:13:32.615Z,972.72
2022-09-28T08:14:32.599Z,972.72
2022-09-28T08:15:32.601Z,972.69
2022-09-28T08:16:32.719Z,972.67
2022-09-28T08:17:32.608Z,972.63
2022-09-28T08:18:32.573Z,972.71
2022-09-28T08:19:32.565Z,972.69
2022-09-28T08:20:32.560Z,972.70
2022-09-28T08:21:32.547Z,972.72
2022-09-28T08:22:32.559Z,972.78
2022-09-28T08:23:32.528Z,972.73
2022-09-28T08:24:32.519Z,972.74
2022-09-28T08:25:32.513Z,972.72
2022-09-28T08:26:32.506Z,972.75
2022-09-28T08:27:32.520Z,972.69
2022-09-28T08:28:32.493Z,972.78
2022-09-28T08:29:32.483Z,972.79
2022-09-28T08:30:32.492Z,972.75
2022-09-28T08:31:32.468Z,972.82
2022-09-28T08:32:32.481Z,972.85
2022-09-28T08:33:32.449Z,972.81
2022-09-28T08:34:32.444Z,972.78
2022-09-28T08:35:32.438Z,972.84
2022-09-28T08:36:32.461Z,972.91
2022-09-28T08:37:32.441Z,972.85
2022-09-28T08:38:32.408Z,972.88
2022-09-28T08:39:32.403Z,972.89
2022-09-28T08:40:32.440Z,972.90
2022-09-28T08:41:32.411Z,972.84
2022-09-28T08:42:32.380Z,972.86
2022-09-28T08:43:32.374Z,972.95
2022-09-28T08:44:32.412Z,972.92
2022-09-28T08:45:32.356Z,972.94
2022-09-28T08:46:32.408Z,972.93
2022-09-28T08:47:32.343Z,972.97
2022-09-28T08:48:32.334Z,972.93
2022-09-28T08:49:32.680Z,972.96
2022-09-28T08:50:32.318Z,973.01
2022-09-28T08:51:32.333Z,972.98
2022-09-28T08:52:32.302Z,972.98
2022-09-28T08:53:32.288Z,972.99
2022-09-28T08:54:32.286Z,973.02
2022-09-28T08:55:32.275Z,973.11
2022-09-28T08:56:32.302Z,973.04
2022-09-28T08:57:32.263Z,973.05
2022-09-28T08:58:32.251Z,973.11
2022-09-28T08:59:32.249Z,973.07
2022-09-28T09:00:32.238Z,973.11
2022-09-28T09:01:32.325Z,973.10
2022-09-28T09:02:32.290Z,973.11
2022-09-28T09:03:32.215Z,973.07
2022-09-28T09:04:32.205Z,973.16
2022-09-28T09:05:32.199Z,973.05
2022-09-28T09:06:32.215Z,973.04
2022-09-28T09:07:32.182Z,973.08
2022-09-28T09:08:32.177Z,973.02
2022-09-28T09:09:32.168Z,973.10
2022-09-28T09:10:32.165Z,973.13
2022-09-28T09:11:33.183Z,973.20
2022-09-28T09:12:32.142Z,973.09
2022-09-28T09:13:32.137Z,973.17
2022-09-28T09:14:32.129Z,973.18
2022-09-28T09:15:32.121Z,973.19
2022-09-28T09:16:32.171Z,973.20
2022-09-28T09:17:32.104Z,973.24
2022-09-28T09:18:32.099Z,973.28
2022-09-28T09:19:32.091Z,973.23
2022-09-28T09:20:32.088Z,973.21
2022-09-28T09:21:32.104Z,973.24
2022-09-28T09:22:32.064Z,973.28
2022-09-28T09:23:32.056Z,973.26
2022-09-28T09:24:32.048Z,973.25
2022-09-28T09:25:35.405Z,973.30
2022-09-28T09:26:34.056Z,973.30
2022-09-28T09:27:32.032Z,973.32
2022-09-28T09:28:32.018Z,973.29
2022-09-28T09:29:32.006Z,973.36
2022-09-28T09:30:32.107Z,973.34
2022-09-28T09:31:32.024Z,973.32
2022-09-28T09:32:31.982Z,973.39
2022-09-28T09:33:31.978Z,973.36
2022-09-28T09:34:31.970Z,973.35
2022-09-28T09:35:31.965Z,973.35
2022-09-28T09:36:31.979Z,973.32
2022-09-28T09:37:31.948Z,973.30
2022-09-28T09:38:31.938Z,973.35
2022-09-28T09:39:31.933Z,973.37
2022-09-28T09:40:31.934Z,973.39
2022-09-28T09:41:31.938Z,973.37
2022-09-28T09:42:31.909Z,973.40
2022-09-28T09:43:32.022Z,973.33
2022-09-28T09:44:31.895Z,973.40
2022-09-28T09:45:31.892Z,973.41
2022-09-28T09:46:31.917Z,973.38
2022-09-28T09:47:31.871Z,973.42
2022-09-28T09:48:31.868Z,973.35
2022-09-28T09:49:31.861Z,973.45
2022-09-28T09:50:31.860Z,973.45
2022-09-28T09:51:31.866Z,973.52
2022-09-28T09:52:31.829Z,973.48
2022-09-28T09:53:34.838Z,973.42
2022-09-28T09:54:32.825Z,973.48
2022-09-28T09:55:31.812Z,973.48
2022-09-28T09:56:31.827Z,973.52
2022-09-28T09:57:31.801Z,973.51
2022-09-28T09:58:31.797Z,973.45
2022-09-28T09:59:31.772Z,973.47
2022-09-28T10:00:31.769Z,973.47
2022-09-28T10:01:31.866Z,973.50
2022-09-28T10:02:31.827Z,973.54
2022-09-28T10:03:31.750Z,973.63
2022-09-28T10:04:31.739Z,973.61
2022-09-28T10:05:31.728Z,973.60
2022-09-28T10:06:31.753Z,973.62
2022-09-28T10:07:31.711Z,973.58
2022-09-28T10:08:31.709Z,973.60
2022-09-28T10:09:31.700Z,973.64
2022-09-28T10:10:31.686Z,973.59
2022-09-28T10:11:31.710Z,973.61
2022-09-28T10:12:31.680Z,973.61
2022-09-28T10:13:31.661Z,973.51
2022-09-28T10:14:31.650Z,973.49
2022-09-28T10:15:31.646Z,973.59
2022-09-28T10:16:31.740Z,973.59
2022-09-28T10:17:31.635Z,973.60
2022-09-28T10:18:31.633Z,973.56
2022-09-28T10:19:31.623Z,973.60
2022-09-28T10:20:31.609Z,973.57
2022-09-28T10:21:31.602Z,973.63
2022-09-28T10:22:31.623Z,973.66
2022-09-28T10:23:31.600Z,973.65
2022-09-28T10:24:31.592Z,973.63
2022-09-28T10:25:31.574Z,973.61
2022-09-28T10:26:31.566Z,973.52
2022-09-28T10:27:31.588Z,973.59
2022-09-28T10:28:31.561Z,973.54
2022-09-28T10:29:31.554Z,973.63
2022-09-28T10:30:31.583Z,973.61
2022-09-28T10:31:31.529Z,973.65
2022-09-28T10:32:31.544Z,973.60
2022-09-28T10:33:31.516Z,973.62
2022-09-28T10:34:31.509Z,973.55
2022-09-28T10:35:31.501Z,973.59
2022-09-28T10:36:31.490Z,973.62
2022-09-28T10:37:31.502Z,973.65
2022-09-28T10:38:31.472Z,973.63
2022-09-28T10:39:31.467Z,973.64
2022-09-28T10:40:31.532Z,973.66
2022-09-28T10:41:31.452Z,973.65
2022-09-28T10:42:31.468Z,973.66
2022-09-28T10:43:31.438Z,973.75
2022-09-28T10:44:31.424Z,973.72
2022-09-28T10:45:31.418Z,973.75
2022-09-28T10:46:31.499Z,973.69
2022-09-28T10:47:32.420Z,973.71
2022-09-28T10:48:31.394Z,973.69
2022-09-28T10:49:31.395Z,973.70
2022-09-28T10:50:31.376Z,973.72
2022-09-28T10:51:31.388Z,973.73
2022-09-28T10:52:31.378Z,973.72
2022-09-28T10:53:31.351Z,973.76
2022-09-28T10:54:31.344Z,973.76
2022-09-28T10:55:31.329Z,973.81
2022-09-28T10:56:31.329Z,973.74
2022-09-28T10:57:31.353Z,973.73
2022-09-28T10:58:31.314Z,973.70
2022-09-28T10:59:31.336Z,973.76
2022-09-28T11:00:31.302Z,973.75
2022-09-28T11:01:31.397Z,973.80
2022-09-28T11:02:35.462Z,973.85
2022-09-28T11:03:32.272Z,973.76
2022-09-28T11:04:31.274Z,973.67
2022-09-28T11:05:31.261Z,973.64
2022-09-28T11:06:31.266Z,973.77
2022-09-28T11:07:31.266Z,973.80
2022-09-28T11:08:31.241Z,973.69
2022-09-28T11:09:31.509Z,973.66
2022-09-28T11:10:31.218Z,973.67
2022-09-28T11:11:31.220Z,973.68
2022-09-28T11:12:31.228Z,973.69
2022-09-28T11:13:31.196Z,973.71
2022-09-28T11:14:31.195Z,973.73
2022-09-28T11:15:31.200Z,973.72
2022-09-28T11:16:31.277Z,973.68
2022-09-28T11:17:31.192Z,973.72
2022-09-28T11:18:31.167Z,973.75
2022-09-28T11:19:31.167Z,973.73
2022-09-28T11:20:31.157Z,973.69
2022-09-28T11:21:31.156Z,973.73
2022-09-28T11:22:31.183Z,973.70
2022-09-28T11:23:31.125Z,973.72
2022-09-28T11:24:31.108Z,973.73
2022-09-28T11:25:31.104Z,973.77
2022-09-28T11:26:31.099Z,973.74
2022-09-28T11:27:31.107Z,973.76
2022-09-28T11:28:31.086Z,973.84
2022-09-28T11:29:31.070Z,973.77
2022-09-28T11:30:31.132Z,973.79
2022-09-28T11:31:31.052Z,973.78
2022-09-28T11:32:31.067Z,973.76
2022-09-28T11:33:31.057Z,973.77
2022-09-28T11:34:54.663Z,973.80
2022-09-28T11:35:33.023Z,973.73
2022-09-28T11:36:31.011Z,973.80
2022-09-28T11:37:31.032Z,973.81
2022-09-28T11:38:30.997Z,973.74
2022-09-28T11:39:30.991Z,973.80
2022-09-28T11:40:31.057Z,973.74
2022-09-28T11:41:30.978Z,973.81
2022-09-28T11:42:30.995Z,973.80
2022-09-28T11:43:30.965Z,973.75
2022-09-28T11:44:33.333Z,973.81
2022-09-28T11:45:31.958Z,973.74
2022-09-28T11:46:31.007Z,973.78
2022-09-28T11:47:30.963Z,973.76
2022-09-28T11:48:30.928Z,973.78
2022-09-28T11:49:30.911Z,973.77
2022-09-28T11:50:30.916Z,973.74
2022-09-28T11:51:30.899Z,973.77
2022-09-28T11:52:30.922Z,973.86
2022-09-28T11:53:30.890Z,973.75
2022-09-28T11:54:30.885Z,973.77
2022-09-28T11:55:30.877Z,973.87
2022-09-28T11:56:30.860Z,973.87
2022-09-28T11:57:30.878Z,973.95
2022-09-28T11:58:30.846Z,973.85
2022-09-28T11:59:30.836Z,973.90
2022-09-28T12:00:30.829Z,973.86
2022-09-28T12:01:30.823Z,973.88
2022-09-28T12:02:30.919Z,973.88
2022-09-28T12:03:30.969Z,973.84
2022-09-28T12:04:30.798Z,973.93
2022-09-28T12:05:30.792Z,973.83
2022-09-28T12:06:30.784Z,973.91
2022-09-28T12:07:30.804Z,973.86
2022-09-28T12:08:30.769Z,973.90
2022-09-28T12:09:30.792Z,973.84
2022-09-28T12:10:30.754Z,973.89
2022-09-28T12:11:30.746Z,973.90
2022-09-28T12:12:30.768Z,973.91
2022-09-28T12:13:30.725Z,973.93
2022-09-28T12:14:30.726Z,973.92
2022-09-28T12:15:42.209Z,973.95
2022-09-28T12:17:03.616Z,973.90
2022-09-28T12:17:32.764Z,973.88
2022-09-28T12:18:30.688Z,973.88
2022-09-28T12:19:30.683Z,973.85
2022-09-28T12:20:30.697Z,973.82
2022-09-28T12:21:30.672Z,973.86
2022-09-28T12:22:30.686Z,973.91
2022-09-28T12:23:30.652Z,973.87
2022-09-28T12:24:30.647Z,973.86
2022-09-28T12:25:30.638Z,973.93
2022-09-28T12:26:34.638Z,973.89
2022-09-28T12:27:31.640Z,973.85
2022-09-28T12:28:30.614Z,973.91